sensor_id;sensor_type;location;lat;lon;timestamp;temperature;humidity
22418;DHT22;11376;50.932;4.442;2023-08-31T00:02:13;12.40;99.90
22418;DHT22;11376;50.932;4.442;2023-08-31T00:04:38;12.40;99.90
22418;DHT22;11376;50.932;4.442;2023-08-31T00:07:04;12.40;99.90
22418;DHT22;11376;50.932;4.442;2023-08-31T00:09:30;12.50;99.90
22418;DHT22;11376;50.932;4.442;2023-08-31T00:11:56;12.40;99.90
22418;DHT22;11376;50.932;4.442;2023-08-31T00:14:23;12.40;99.90
22418;DHT22;11376;50.932;4.442;2023-08-31T00:16:49;12.50;99.90
22418;DHT22;11376;50.932;4.442;2023-08-31T00:19:15;12.40;99.90
22418;DHT22;11376;50.932;4.442;2023-08-31T00:21:42;12.50;99.90
22418;DHT22;11376;50.932;4.442;2023-08-31T00:24:07;12.40;99.90
22418;DHT22;11376;50.932;4.442;2023-08-31T00:26:35;12.50;99.90
22418;DHT22;11376;50.932;4.442;2023-08-31T00:29:06;12.50;99.90
22418;DHT22;11376;50.932;4.442;2023-08-31T00:31:32;12.50;99.90
22418;DHT22;11376;50.932;4.442;2023-08-31T00:33:59;12.50;99.90
22418;DHT22;11376;50.932;4.442;2023-08-31T00:36:30;12.50;99.90
22418;DHT22;11376;50.932;4.442;2023-08-31T00:38:55;12.50;99.90
22418;DHT22;11376;50.932;4.442;2023-08-31T00:41:22;12.50;99.90
22418;DHT22;11376;50.932;4.442;2023-08-31T00:43:48;12.50;99.90
22418;DHT22;11376;50.932;4.442;2023-08-31T00:46:14;12.50;99.90
22418;DHT22;11376;50.932;4.442;2023-08-31T00:48:40;12.50;99.90
22418;DHT22;11376;50.932;4.442;2023-08-31T00:51:07;12.50;99.90
22418;DHT22;11376;50.932;4.442;2023-08-31T00:53:33;12.40;99.90
22418;DHT22;11376;50.932;4.442;2023-08-31T00:55:59;12.40;99.90
22418;DHT22;11376;50.932;4.442;2023-08-31T00:58:25;12.40;99.90
22418;DHT22;11376;50.932;4.442;2023-08-31T01:12:17;12.40;99.90
22418;DHT22;11376;50.932;4.442;2023-08-31T01:15:10;12.40;99.90
22418;DHT22;11376;50.932;4.442;2023-08-31T01:17:50;12.40;99.90
22418;DHT22;11376;50.932;4.442;2023-08-31T01:20:22;12.40;99.90
22418;DHT22;11376;50.932;4.442;2023-08-31T01:23:08;12.40;99.90
22418;DHT22;11376;50.932;4.442;2023-08-31T01:25:36;12.40;99.90
22418;DHT22;11376;50.932;4.442;2023-08-31T01:28:03;12.40;99.90
22418;DHT22;11376;50.932;4.442;2023-08-31T01:30:32;12.40;99.90
22418;DHT22;11376;50.932;4.442;2023-08-31T01:32:58;12.40;99.90
22418;DHT22;11376;50.932;4.442;2023-08-31T01:35:25;12.50;99.90
22418;DHT22;11376;50.932;4.442;2023-08-31T01:37:59;12.50;99.90
22418;DHT22;11376;50.932;4.442;2023-08-31T01:40:44;12.50;99.90
22418;DHT22;11376;50.932;4.442;2023-08-31T01:43:15;12.50;99.90
22418;DHT22;11376;50.932;4.442;2023-08-31T01:45:42;12.50;99.90
22418;DHT22;11376;50.932;4.442;2023-08-31T01:48:09;12.50;99.90
22418;DHT22;11376;50.932;4.442;2023-08-31T01:50:35;12.40;99.90
22418;DHT22;11376;50.932;4.442;2023-08-31T01:53:01;12.40;99.90
22418;DHT22;11376;50.932;4.442;2023-08-31T01:55:26;12.40;99.90
22418;DHT22;11376;50.932;4.442;2023-08-31T01:57:52;12.40;99.90
22418;DHT22;11376;50.932;4.442;2023-08-31T02:00:18;12.40;99.90
22418;DHT22;11376;50.932;4.442;2023-08-31T02:02:44;12.40;99.90
22418;DHT22;11376;50.932;4.442;2023-08-31T02:05:10;12.40;99.90
22418;DHT22;11376;50.932;4.442;2023-08-31T02:07:36;12.40;99.90
22418;DHT22;11376;50.932;4.442;2023-08-31T02:10:03;12.40;99.90
22418;DHT22;11376;50.932;4.442;2023-08-31T02:12:32;12.40;99.90
22418;DHT22;11376;50.932;4.442;2023-08-31T02:14:57;12.40;99.90
22418;DHT22;11376;50.932;4.442;2023-08-31T02:17:23;12.40;99.90
22418;DHT22;11376;50.932;4.442;2023-08-31T02:19:49;12.40;99.90
22418;DHT22;11376;50.932;4.442;2023-08-31T02:22:15;12.40;99.90
22418;DHT22;11376;50.932;4.442;2023-08-31T02:24:41;12.40;99.90
22418;DHT22;11376;50.932;4.442;2023-08-31T02:27:06;12.40;99.90
22418;DHT22;11376;50.932;4.442;2023-08-31T02:29:32;12.40;99.90
22418;DHT22;11376;50.932;4.442;2023-08-31T02:31:58;12.40;99.90
22418;DHT22;11376;50.932;4.442;2023-08-31T02:34:23;12.40;99.90
22418;DHT22;11376;50.932;4.442;2023-08-31T02:36:49;12.40;99.90
22418;DHT22;11376;50.932;4.442;2023-08-31T02:39:15;12.40;99.90
22418;DHT22;11376;50.932;4.442;2023-08-31T02:41:41;12.40;99.90
22418;DHT22;11376;50.932;4.442;2023-08-31T02:44:07;12.40;99.90
22418;DHT22;11376;50.932;4.442;2023-08-31T02:46:32;12.40;99.90
22418;DHT22;11376;50.932;4.442;2023-08-31T02:48:58;12.40;99.90
22418;DHT22;11376;50.932;4.442;2023-08-31T02:51:24;12.50;99.90
22418;DHT22;11376;50.932;4.442;2023-08-31T02:53:49;12.50;99.90
22418;DHT22;11376;50.932;4.442;2023-08-31T02:56:15;12.50;99.90
22418;DHT22;11376;50.932;4.442;2023-08-31T02:58:41;12.50;99.90
22418;DHT22;11376;50.932;4.442;2023-08-31T03:01:11;12.50;99.90
22418;DHT22;11376;50.932;4.442;2023-08-31T03:03:41;12.50;99.90
22418;DHT22;11376;50.932;4.442;2023-08-31T03:06:07;12.60;99.90
22418;DHT22;11376;50.932;4.442;2023-08-31T03:08:34;12.60;99.90
22418;DHT22;11376;50.932;4.442;2023-08-31T03:11:00;12.60;99.90
22418;DHT22;11376;50.932;4.442;2023-08-31T03:13:25;12.60;99.90
22418;DHT22;11376;50.932;4.442;2023-08-31T03:15:51;12.60;99.90
22418;DHT22;11376;50.932;4.442;2023-08-31T03:18:17;12.70;99.90
22418;DHT22;11376;50.932;4.442;2023-08-31T03:20:43;12.70;99.90
22418;DHT22;11376;50.932;4.442;2023-08-31T03:23:08;12.70;99.90
22418;DHT22;11376;50.932;4.442;2023-08-31T03:25:36;12.70;99.90
22418;DHT22;11376;50.932;4.442;2023-08-31T03:28:03;12.70;99.90
22418;DHT22;11376;50.932;4.442;2023-08-31T03:30:28;12.70;99.90
22418;DHT22;11376;50.932;4.442;2023-08-31T03:32:54;12.70;99.90
22418;DHT22;11376;50.932;4.442;2023-08-31T03:35:20;12.70;99.90
22418;DHT22;11376;50.932;4.442;2023-08-31T03:37:48;12.70;99.90
22418;DHT22;11376;50.932;4.442;2023-08-31T03:40:14;12.70;99.90
22418;DHT22;11376;50.932;4.442;2023-08-31T03:42:39;12.70;99.90
22418;DHT22;11376;50.932;4.442;2023-08-31T03:45:05;12.70;99.90
22418;DHT22;11376;50.932;4.442;2023-08-31T03:47:31;12.60;99.90
22418;DHT22;11376;50.932;4.442;2023-08-31T03:49:57;12.60;99.90
22418;DHT22;11376;50.932;4.442;2023-08-31T03:52:23;12.60;99.90
22418;DHT22;11376;50.932;4.442;2023-08-31T03:54:49;12.60;99.90
22418;DHT22;11376;50.932;4.442;2023-08-31T03:57:15;12.60;99.90
22418;DHT22;11376;50.932;4.442;2023-08-31T03:59:41;12.60;99.90
22418;DHT22;11376;50.932;4.442;2023-08-31T04:02:06;12.60;99.90
22418;DHT22;11376;50.932;4.442;2023-08-31T04:04:32;12.60;99.90
22418;DHT22;11376;50.932;4.442;2023-08-31T04:06:59;12.60;99.90
22418;DHT22;11376;50.932;4.442;2023-08-31T04:09:25;12.60;99.90
22418;DHT22;11376;50.932;4.442;2023-08-31T04:11:51;12.60;99.90
22418;DHT22;11376;50.932;4.442;2023-08-31T04:14:17;12.60;99.90
22418;DHT22;11376;50.932;4.442;2023-08-31T04:16:44;12.60;99.90
22418;DHT22;11376;50.932;4.442;2023-08-31T04:19:10;12.60;99.90
22418;DHT22;11376;50.932;4.442;2023-08-31T04:21:36;12.60;99.90
22418;DHT22;11376;50.932;4.442;2023-08-31T04:24:03;12.60;99.90
22418;DHT22;11376;50.932;4.442;2023-08-31T04:26:29;12.60;99.90
22418;DHT22;11376;50.932;4.442;2023-08-31T04:28:55;12.50;99.90
22418;DHT22;11376;50.932;4.442;2023-08-31T04:31:21;12.60;99.90
22418;DHT22;11376;50.932;4.442;2023-08-31T04:33:47;12.60;99.90
22418;DHT22;11376;50.932;4.442;2023-08-31T04:36:14;12.50;99.90
22418;DHT22;11376;50.932;4.442;2023-08-31T04:38:39;12.50;99.90
22418;DHT22;11376;50.932;4.442;2023-08-31T04:41:05;12.50;99.90
22418;DHT22;11376;50.932;4.442;2023-08-31T04:43:31;12.50;99.90
22418;DHT22;11376;50.932;4.442;2023-08-31T04:45:57;12.50;99.90
22418;DHT22;11376;50.932;4.442;2023-08-31T04:48:22;12.50;99.90
22418;DHT22;11376;50.932;4.442;2023-08-31T04:50:48;12.50;99.90
22418;DHT22;11376;50.932;4.442;2023-08-31T04:53:14;12.50;99.90
22418;DHT22;11376;50.932;4.442;2023-08-31T04:55:40;12.60;99.90
22418;DHT22;11376;50.932;4.442;2023-08-31T04:58:05;12.60;99.90
22418;DHT22;11376;50.932;4.442;2023-08-31T05:00:31;12.60;99.90
22418;DHT22;11376;50.932;4.442;2023-08-31T05:02:57;12.60;99.90
22418;DHT22;11376;50.932;4.442;2023-08-31T05:05:23;12.60;99.90
22418;DHT22;11376;50.932;4.442;2023-08-31T05:07:49;12.60;99.90
22418;DHT22;11376;50.932;4.442;2023-08-31T05:10:15;12.60;99.90
22418;DHT22;11376;50.932;4.442;2023-08-31T05:12:42;12.60;99.90
22418;DHT22;11376;50.932;4.442;2023-08-31T05:15:08;12.60;99.90
22418;DHT22;11376;50.932;4.442;2023-08-31T05:17:35;12.60;99.90
22418;DHT22;11376;50.932;4.442;2023-08-31T05:20:00;12.60;99.90
22418;DHT22;11376;50.932;4.442;2023-08-31T05:22:26;12.60;99.90
22418;DHT22;11376;50.932;4.442;2023-08-31T05:24:52;12.60;99.90
22418;DHT22;11376;50.932;4.442;2023-08-31T05:27:17;12.60;99.90
22418;DHT22;11376;50.932;4.442;2023-08-31T05:29:43;12.70;99.90
22418;DHT22;11376;50.932;4.442;2023-08-31T05:32:09;12.70;99.90
22418;DHT22;11376;50.932;4.442;2023-08-31T05:34:34;12.70;99.90
22418;DHT22;11376;50.932;4.442;2023-08-31T05:37:03;12.70;99.90
22418;DHT22;11376;50.932;4.442;2023-08-31T05:39:32;12.70;99.90
22418;DHT22;11376;50.932;4.442;2023-08-31T05:41:58;12.80;99.90
22418;DHT22;11376;50.932;4.442;2023-08-31T05:44:24;12.80;99.90
22418;DHT22;11376;50.932;4.442;2023-08-31T05:46:50;12.80;99.90
22418;DHT22;11376;50.932;4.442;2023-08-31T05:49:15;12.80;99.90
22418;DHT22;11376;50.932;4.442;2023-08-31T05:51:41;12.80;99.90
22418;DHT22;11376;50.932;4.442;2023-08-31T05:54:07;12.80;99.90
22418;DHT22;11376;50.932;4.442;2023-08-31T05:56:38;12.90;99.90
22418;DHT22;11376;50.932;4.442;2023-08-31T05:59:07;12.90;99.90
22418;DHT22;11376;50.932;4.442;2023-08-31T06:01:34;13.00;99.90
22418;DHT22;11376;50.932;4.442;2023-08-31T06:04:01;13.00;99.90
22418;DHT22;11376;50.932;4.442;2023-08-31T06:06:26;13.00;99.90
22418;DHT22;11376;50.932;4.442;2023-08-31T06:08:52;13.00;99.90
22418;DHT22;11376;50.932;4.442;2023-08-31T06:11:19;13.10;99.90
22418;DHT22;11376;50.932;4.442;2023-08-31T06:13:44;13.10;99.90
22418;DHT22;11376;50.932;4.442;2023-08-31T06:16:10;13.10;99.90
22418;DHT22;11376;50.932;4.442;2023-08-31T06:18:36;13.10;99.90
22418;DHT22;11376;50.932;4.442;2023-08-31T06:21:02;13.10;99.90
22418;DHT22;11376;50.932;4.442;2023-08-31T06:23:27;13.10;99.90
22418;DHT22;11376;50.932;4.442;2023-08-31T06:25:53;13.20;99.90
22418;DHT22;11376;50.932;4.442;2023-08-31T06:28:19;13.20;99.90
22418;DHT22;11376;50.932;4.442;2023-08-31T06:30:45;13.30;99.90
22418;DHT22;11376;50.932;4.442;2023-08-31T06:33:13;13.30;99.90
22418;DHT22;11376;50.932;4.442;2023-08-31T06:35:39;13.30;99.90
22418;DHT22;11376;50.932;4.442;2023-08-31T06:38:05;13.30;99.90
22418;DHT22;11376;50.932;4.442;2023-08-31T06:40:31;13.30;99.90
22418;DHT22;11376;50.932;4.442;2023-08-31T06:42:57;13.40;99.90
22418;DHT22;11376;50.932;4.442;2023-08-31T06:45:23;13.40;99.90
22418;DHT22;11376;50.932;4.442;2023-08-31T06:47:48;13.50;99.90
22418;DHT22;11376;50.932;4.442;2023-08-31T06:50:14;13.50;99.90
22418;DHT22;11376;50.932;4.442;2023-08-31T06:52:40;13.60;99.90
22418;DHT22;11376;50.932;4.442;2023-08-31T06:55:07;13.60;99.90
22418;DHT22;11376;50.932;4.442;2023-08-31T06:57:32;13.70;99.90
22418;DHT22;11376;50.932;4.442;2023-08-31T06:59:58;13.70;99.90
22418;DHT22;11376;50.932;4.442;2023-08-31T07:02:26;13.80;99.90
22418;DHT22;11376;50.932;4.442;2023-08-31T07:04:53;13.80;99.90
22418;DHT22;11376;50.932;4.442;2023-08-31T07:07:18;13.80;99.90
22418;DHT22;11376;50.932;4.442;2023-08-31T07:09:47;13.90;99.90
22418;DHT22;11376;50.932;4.442;2023-08-31T07:12:16;14.00;99.90
22418;DHT22;11376;50.932;4.442;2023-08-31T07:14:42;14.10;99.90
22418;DHT22;11376;50.932;4.442;2023-08-31T07:17:08;14.10;99.90
22418;DHT22;11376;50.932;4.442;2023-08-31T07:19:37;14.10;99.90
22418;DHT22;11376;50.932;4.442;2023-08-31T07:22:03;14.10;99.90
22418;DHT22;11376;50.932;4.442;2023-08-31T07:24:29;14.20;99.90
22418;DHT22;11376;50.932;4.442;2023-08-31T07:26:55;14.20;99.90
22418;DHT22;11376;50.932;4.442;2023-08-31T07:29:21;14.20;99.90
22418;DHT22;11376;50.932;4.442;2023-08-31T07:31:47;14.30;99.90
22418;DHT22;11376;50.932;4.442;2023-08-31T07:34:12;14.40;99.90
22418;DHT22;11376;50.932;4.442;2023-08-31T07:36:38;14.50;99.90
22418;DHT22;11376;50.932;4.442;2023-08-31T07:39:05;14.50;99.90
22418;DHT22;11376;50.932;4.442;2023-08-31T07:41:30;14.60;99.90
22418;DHT22;11376;50.932;4.442;2023-08-31T07:43:56;14.70;99.90
22418;DHT22;11376;50.932;4.442;2023-08-31T07:46:22;14.70;99.90
22418;DHT22;11376;50.932;4.442;2023-08-31T07:48:47;14.80;99.90
22418;DHT22;11376;50.932;4.442;2023-08-31T07:51:15;14.80;99.90
22418;DHT22;11376;50.932;4.442;2023-08-31T07:53:41;14.90;99.90
22418;DHT22;11376;50.932;4.442;2023-08-31T07:56:07;14.90;99.90
22418;DHT22;11376;50.932;4.442;2023-08-31T07:58:32;15.10;99.90
22418;DHT22;11376;50.932;4.442;2023-08-31T08:00:58;15.10;99.90
22418;DHT22;11376;50.932;4.442;2023-08-31T08:03:24;15.20;99.90
22418;DHT22;11376;50.932;4.442;2023-08-31T08:05:50;15.20;99.90
22418;DHT22;11376;50.932;4.442;2023-08-31T08:08:16;15.20;99.90
22418;DHT22;11376;50.932;4.442;2023-08-31T08:10:42;15.30;99.90
22418;DHT22;11376;50.932;4.442;2023-08-31T08:13:09;15.40;99.90
22418;DHT22;11376;50.932;4.442;2023-08-31T08:15:34;15.40;99.90
22418;DHT22;11376;50.932;4.442;2023-08-31T08:18:00;15.50;99.90
22418;DHT22;11376;50.932;4.442;2023-08-31T08:20:27;15.50;99.90
22418;DHT22;11376;50.932;4.442;2023-08-31T08:22:53;15.60;99.90
22418;DHT22;11376;50.932;4.442;2023-08-31T08:25:20;15.70;99.90
22418;DHT22;11376;50.932;4.442;2023-08-31T08:27:47;15.90;99.90
22418;DHT22;11376;50.932;4.442;2023-08-31T08:30:14;15.90;99.90
22418;DHT22;11376;50.932;4.442;2023-08-31T08:32:41;16.00;99.90
22418;DHT22;11376;50.932;4.442;2023-08-31T08:35:07;16.00;99.90
22418;DHT22;11376;50.932;4.442;2023-08-31T08:37:32;16.20;99.90
22418;DHT22;11376;50.932;4.442;2023-08-31T08:39:58;16.30;99.90
22418;DHT22;11376;50.932;4.442;2023-08-31T08:42:25;16.40;99.90
22418;DHT22;11376;50.932;4.442;2023-08-31T08:44:51;16.50;99.90
22418;DHT22;11376;50.932;4.442;2023-08-31T08:47:17;16.60;99.90
22418;DHT22;11376;50.932;4.442;2023-08-31T08:49:44;16.50;99.90
22418;DHT22;11376;50.932;4.442;2023-08-31T08:52:12;16.50;99.90
22418;DHT22;11376;50.932;4.442;2023-08-31T08:54:39;16.40;99.90
22418;DHT22;11376;50.932;4.442;2023-08-31T08:57:05;16.40;99.90
22418;DHT22;11376;50.932;4.442;2023-08-31T08:59:31;16.50;99.90
22418;DHT22;11376;50.932;4.442;2023-08-31T09:01:57;16.60;99.90
22418;DHT22;11376;50.932;4.442;2023-08-31T09:04:23;16.80;99.90
22418;DHT22;11376;50.932;4.442;2023-08-31T09:06:51;16.80;99.90
22418;DHT22;11376;50.932;4.442;2023-08-31T09:09:16;16.90;99.90
22418;DHT22;11376;50.932;4.442;2023-08-31T09:11:43;16.80;99.90
22418;DHT22;11376;50.932;4.442;2023-08-31T09:16:44;17.00;99.90
22418;DHT22;11376;50.932;4.442;2023-08-31T09:19:24;17.00;99.90
22418;DHT22;11376;50.932;4.442;2023-08-31T09:21:57;17.10;99.90
22418;DHT22;11376;50.932;4.442;2023-08-31T09:24:23;17.20;99.90
22418;DHT22;11376;50.932;4.442;2023-08-31T09:26:57;17.50;99.90
22418;DHT22;11376;50.932;4.442;2023-08-31T09:29:24;17.50;99.90
22418;DHT22;11376;50.932;4.442;2023-08-31T09:31:50;17.70;99.90
22418;DHT22;11376;50.932;4.442;2023-08-31T09:34:17;17.80;99.90
22418;DHT22;11376;50.932;4.442;2023-08-31T09:36:43;17.90;99.90
22418;DHT22;11376;50.932;4.442;2023-08-31T09:39:09;17.80;99.90
22418;DHT22;11376;50.932;4.442;2023-08-31T09:41:53;17.80;99.90
22418;DHT22;11376;50.932;4.442;2023-08-31T09:44:20;17.80;99.90
22418;DHT22;11376;50.932;4.442;2023-08-31T09:46:46;17.90;99.90
22418;DHT22;11376;50.932;4.442;2023-08-31T09:49:17;18.20;99.90
22418;DHT22;11376;50.932;4.442;2023-08-31T09:51:48;18.40;99.90
22418;DHT22;11376;50.932;4.442;2023-08-31T09:54:17;18.50;99.90
22418;DHT22;11376;50.932;4.442;2023-08-31T09:56:45;18.60;99.90
22418;DHT22;11376;50.932;4.442;2023-08-31T09:59:13;18.60;99.90
22418;DHT22;11376;50.932;4.442;2023-08-31T10:01:40;18.50;99.90
22418;DHT22;11376;50.932;4.442;2023-08-31T10:04:07;18.70;99.90
22418;DHT22;11376;50.932;4.442;2023-08-31T10:06:35;19.00;99.90
22418;DHT22;11376;50.932;4.442;2023-08-31T10:09:02;19.20;99.90
22418;DHT22;11376;50.932;4.442;2023-08-31T10:11:29;19.00;99.90
22418;DHT22;11376;50.932;4.442;2023-08-31T10:13:55;19.40;99.90
22418;DHT22;11376;50.932;4.442;2023-08-31T10:16:21;19.80;99.90
22418;DHT22;11376;50.932;4.442;2023-08-31T10:18:48;19.60;99.90
22418;DHT22;11376;50.932;4.442;2023-08-31T10:21:18;19.80;99.90
22418;DHT22;11376;50.932;4.442;2023-08-31T10:23:47;19.60;99.90
22418;DHT22;11376;50.932;4.442;2023-08-31T10:28:49;19.40;99.90
22418;DHT22;11376;50.932;4.442;2023-08-31T10:31:19;19.70;99.90
22418;DHT22;11376;50.932;4.442;2023-08-31T10:36:25;19.40;99.90
22418;DHT22;11376;50.932;4.442;2023-08-31T10:39:00;19.70;99.90
22418;DHT22;11376;50.932;4.442;2023-08-31T10:41:33;20.30;99.90
22418;DHT22;11376;50.932;4.442;2023-08-31T10:43:59;20.50;99.90
22418;DHT22;11376;50.932;4.442;2023-08-31T10:46:32;19.90;99.90
22418;DHT22;11376;50.932;4.442;2023-08-31T10:49:15;20.40;99.90
22418;DHT22;11376;50.932;4.442;2023-08-31T10:52:18;21.50;99.90
22418;DHT22;11376;50.932;4.442;2023-08-31T10:54:46;22.90;99.90
22418;DHT22;11376;50.932;4.442;2023-08-31T10:57:12;23.50;99.90
22418;DHT22;11376;50.932;4.442;2023-08-31T10:59:48;23.40;99.90
22418;DHT22;11376;50.932;4.442;2023-08-31T11:02:36;21.90;99.90
22418;DHT22;11376;50.932;4.442;2023-08-31T11:05:06;20.90;99.90
22418;DHT22;11376;50.932;4.442;2023-08-31T11:07:33;21.00;99.90
22418;DHT22;11376;50.932;4.442;2023-08-31T11:12:36;22.60;99.90
22418;DHT22;11376;50.932;4.442;2023-08-31T11:15:02;23.10;99.90
22418;DHT22;11376;50.932;4.442;2023-08-31T11:17:29;22.40;99.90
22418;DHT22;11376;50.932;4.442;2023-08-31T11:19:56;21.70;99.90
22418;DHT22;11376;50.932;4.442;2023-08-31T11:22:22;22.80;99.90
22418;DHT22;11376;50.932;4.442;2023-08-31T11:24:48;23.00;99.90
22418;DHT22;11376;50.932;4.442;2023-08-31T11:27:14;24.30;99.90
22418;DHT22;11376;50.932;4.442;2023-08-31T11:29:44;25.00;99.90
22418;DHT22;11376;50.932;4.442;2023-08-31T11:32:10;23.80;99.90
22418;DHT22;11376;50.932;4.442;2023-08-31T11:34:44;23.50;99.90
22418;DHT22;11376;50.932;4.442;2023-08-31T11:37:12;23.00;99.90
22418;DHT22;11376;50.932;4.442;2023-08-31T11:39:42;22.60;99.90
22418;DHT22;11376;50.932;4.442;2023-08-31T11:42:08;22.60;99.90
22418;DHT22;11376;50.932;4.442;2023-08-31T11:44:34;23.30;99.90
22418;DHT22;11376;50.932;4.442;2023-08-31T11:47:00;24.10;99.90
22418;DHT22;11376;50.932;4.442;2023-08-31T11:49:27;24.90;99.90
22418;DHT22;11376;50.932;4.442;2023-08-31T11:51:54;24.60;99.90
22418;DHT22;11376;50.932;4.442;2023-08-31T11:54:20;25.30;99.90
22418;DHT22;11376;50.932;4.442;2023-08-31T11:56:46;24.60;99.90
22418;DHT22;11376;50.932;4.442;2023-08-31T11:59:18;24.50;99.90
22418;DHT22;11376;50.932;4.442;2023-08-31T12:01:47;24.60;99.90
22418;DHT22;11376;50.932;4.442;2023-08-31T12:04:22;24.10;99.90
22418;DHT22;11376;50.932;4.442;2023-08-31T12:06:52;23.80;99.90
22418;DHT22;11376;50.932;4.442;2023-08-31T12:09:20;21.70;99.90
22418;DHT22;11376;50.932;4.442;2023-08-31T12:11:50;20.70;99.90
22418;DHT22;11376;50.932;4.442;2023-08-31T12:14:24;20.10;99.90
22418;DHT22;11376;50.932;4.442;2023-08-31T12:16:52;19.50;99.90
22418;DHT22;11376;50.932;4.442;2023-08-31T12:19:18;19.50;99.90
22418;DHT22;11376;50.932;4.442;2023-08-31T12:21:45;19.50;99.90
22418;DHT22;11376;50.932;4.442;2023-08-31T12:24:11;19.20;99.90
22418;DHT22;11376;50.932;4.442;2023-08-31T12:26:38;19.20;99.90
22418;DHT22;11376;50.932;4.442;2023-08-31T12:29:04;19.10;99.90
22418;DHT22;11376;50.932;4.442;2023-08-31T12:31:31;19.30;99.90
22418;DHT22;11376;50.932;4.442;2023-08-31T12:33:58;19.50;99.90
22418;DHT22;11376;50.932;4.442;2023-08-31T12:36:23;19.80;99.90
22418;DHT22;11376;50.932;4.442;2023-08-31T12:38:49;20.00;99.90
22418;DHT22;11376;50.932;4.442;2023-08-31T12:41:17;20.10;99.90
22418;DHT22;11376;50.932;4.442;2023-08-31T12:43:42;19.70;99.90
22418;DHT22;11376;50.932;4.442;2023-08-31T12:46:08;19.70;99.90
22418;DHT22;11376;50.932;4.442;2023-08-31T12:48:35;19.90;99.90
22418;DHT22;11376;50.932;4.442;2023-08-31T12:51:01;19.90;99.90
22418;DHT22;11376;50.932;4.442;2023-08-31T12:53:27;20.00;99.90
22418;DHT22;11376;50.932;4.442;2023-08-31T12:55:53;20.10;99.90
22418;DHT22;11376;50.932;4.442;2023-08-31T12:58:19;20.00;99.90
22418;DHT22;11376;50.932;4.442;2023-08-31T13:00:47;19.80;99.90
22418;DHT22;11376;50.932;4.442;2023-08-31T13:03:14;19.80;99.90
22418;DHT22;11376;50.932;4.442;2023-08-31T13:05:40;19.70;99.90
22418;DHT22;11376;50.932;4.442;2023-08-31T13:08:07;19.80;99.90
22418;DHT22;11376;50.932;4.442;2023-08-31T13:10:33;19.70;99.90
22418;DHT22;11376;50.932;4.442;2023-08-31T13:12:58;19.60;99.90
22418;DHT22;11376;50.932;4.442;2023-08-31T13:15:24;19.60;99.90
22418;DHT22;11376;50.932;4.442;2023-08-31T13:17:50;20.00;99.90
22418;DHT22;11376;50.932;4.442;2023-08-31T13:20:16;20.60;99.90
22418;DHT22;11376;50.932;4.442;2023-08-31T13:22:41;20.80;99.90
22418;DHT22;11376;50.932;4.442;2023-08-31T13:25:07;21.60;99.90
22418;DHT22;11376;50.932;4.442;2023-08-31T13:27:33;21.80;99.90
22418;DHT22;11376;50.932;4.442;2023-08-31T13:29:59;21.50;99.90
22418;DHT22;11376;50.932;4.442;2023-08-31T13:32:25;21.80;99.90
22418;DHT22;11376;50.932;4.442;2023-08-31T13:34:51;22.50;99.90
22418;DHT22;11376;50.932;4.442;2023-08-31T13:37:18;22.20;99.90
22418;DHT22;11376;50.932;4.442;2023-08-31T13:39:44;23.30;99.90
22418;DHT22;11376;50.932;4.442;2023-08-31T13:42:10;23.10;99.90
22418;DHT22;11376;50.932;4.442;2023-08-31T13:44:36;22.10;99.90
22418;DHT22;11376;50.932;4.442;2023-08-31T13:47:01;21.60;99.90
22418;DHT22;11376;50.932;4.442;2023-08-31T13:49:29;21.70;99.90
22418;DHT22;11376;50.932;4.442;2023-08-31T13:51:56;21.40;99.90
22418;DHT22;11376;50.932;4.442;2023-08-31T13:54:21;21.40;99.90
22418;DHT22;11376;50.932;4.442;2023-08-31T13:56:47;21.70;99.90
22418;DHT22;11376;50.932;4.442;2023-08-31T13:59:15;21.50;99.90
22418;DHT22;11376;50.932;4.442;2023-08-31T14:01:41;21.50;99.90
22418;DHT22;11376;50.932;4.442;2023-08-31T14:04:07;21.30;99.90
22418;DHT22;11376;50.932;4.442;2023-08-31T14:06:32;20.80;99.90
22418;DHT22;11376;50.932;4.442;2023-08-31T14:08:58;20.60;99.90
22418;DHT22;11376;50.932;4.442;2023-08-31T14:11:24;20.90;99.90
22418;DHT22;11376;50.932;4.442;2023-08-31T14:13:50;21.30;99.90
22418;DHT22;11376;50.932;4.442;2023-08-31T14:16:18;21.50;99.90
22418;DHT22;11376;50.932;4.442;2023-08-31T14:18:43;21.10;99.90
22418;DHT22;11376;50.932;4.442;2023-08-31T14:21:15;21.00;99.90
22418;DHT22;11376;50.932;4.442;2023-08-31T14:23:42;20.90;99.90
22418;DHT22;11376;50.932;4.442;2023-08-31T14:26:07;20.80;99.90
22418;DHT22;11376;50.932;4.442;2023-08-31T14:28:36;20.70;99.90
22418;DHT22;11376;50.932;4.442;2023-08-31T14:31:05;20.70;99.90
22418;DHT22;11376;50.932;4.442;2023-08-31T14:33:31;21.30;99.90
22418;DHT22;11376;50.932;4.442;2023-08-31T14:35:57;21.00;99.90
22418;DHT22;11376;50.932;4.442;2023-08-31T14:38:23;21.10;99.90
22418;DHT22;11376;50.932;4.442;2023-08-31T14:40:50;20.90;99.90
22418;DHT22;11376;50.932;4.442;2023-08-31T14:43:16;20.90;99.90
22418;DHT22;11376;50.932;4.442;2023-08-31T14:45:42;21.00;99.90
22418;DHT22;11376;50.932;4.442;2023-08-31T14:48:08;20.80;99.90
22418;DHT22;11376;50.932;4.442;2023-08-31T14:50:34;20.80;99.90
22418;DHT22;11376;50.932;4.442;2023-08-31T14:53:00;20.90;99.90
22418;DHT22;11376;50.932;4.442;2023-08-31T14:55:25;20.70;99.90
22418;DHT22;11376;50.932;4.442;2023-08-31T14:57:51;20.40;99.90
22418;DHT22;11376;50.932;4.442;2023-08-31T15:00:17;20.30;99.90
22418;DHT22;11376;50.932;4.442;2023-08-31T15:02:44;20.20;99.90
22418;DHT22;11376;50.932;4.442;2023-08-31T15:05:09;20.10;99.90
22418;DHT22;11376;50.932;4.442;2023-08-31T15:07:35;19.90;99.90
22418;DHT22;11376;50.932;4.442;2023-08-31T15:10:01;19.90;99.90
22418;DHT22;11376;50.932;4.442;2023-08-31T15:12:27;19.90;99.90
22418;DHT22;11376;50.932;4.442;2023-08-31T15:14:53;19.90;99.90
22418;DHT22;11376;50.932;4.442;2023-08-31T15:17:18;19.90;99.90
22418;DHT22;11376;50.932;4.442;2023-08-31T15:19:44;19.80;99.90
22418;DHT22;11376;50.932;4.442;2023-08-31T15:22:10;20.00;99.90
22418;DHT22;11376;50.932;4.442;2023-08-31T15:24:35;19.80;99.90
22418;DHT22;11376;50.932;4.442;2023-08-31T15:27:02;19.80;99.90
22418;DHT22;11376;50.932;4.442;2023-08-31T15:29:29;19.80;99.90
22418;DHT22;11376;50.932;4.442;2023-08-31T15:31:56;19.60;99.90
22418;DHT22;11376;50.932;4.442;2023-08-31T15:34:22;19.60;99.90
22418;DHT22;11376;50.932;4.442;2023-08-31T15:36:49;19.60;99.90
22418;DHT22;11376;50.932;4.442;2023-08-31T15:39:14;19.50;99.90
22418;DHT22;11376;50.932;4.442;2023-08-31T15:41:40;19.60;99.90
22418;DHT22;11376;50.932;4.442;2023-08-31T15:44:06;19.50;99.90
22418;DHT22;11376;50.932;4.442;2023-08-31T15:46:31;19.30;99.90
22418;DHT22;11376;50.932;4.442;2023-08-31T15:48:57;19.10;99.90
22418;DHT22;11376;50.932;4.442;2023-08-31T15:51:23;18.90;99.90